createdAt,value
2019-04-25T00:01:33.998Z,99.90
2019-04-25T00:11:40.391Z,99.90
2019-04-25T00:21:53.465Z,99.90
2019-04-25T00:31:58.989Z,99.90
2019-04-25T00:42:04.426Z,99.90
2019-04-25T00:52:11.191Z,99.90
2019-04-25T01:02:22.341Z,99.90
2019-04-25T01:12:27.631Z,99.90
2019-04-25T01:22:34.351Z,99.90
2019-04-25T01:32:39.974Z,99.90
2019-04-25T01:43:06.995Z,99.90
2019-04-25T01:53:14.550Z,99.90
2019-04-25T02:03:20.358Z,99.90
2019-04-25T02:13:27.149Z,99.90
2019-04-25T02:23:34.053Z,99.90
2019-04-25T02:33:39.512Z,99.90
2019-04-25T02:43:45.372Z,99.90
2019-04-25T02:53:53.653Z,99.90
2019-04-25T03:03:59.370Z,99.90
2019-04-25T03:14:08.216Z,99.90
2019-04-25T03:24:16.439Z,99.90
2019-04-25T03:34:20.959Z,99.90
2019-04-25T03:44:26.564Z,99.90
2019-04-25T03:54:33.281Z,99.90
2019-04-25T04:04:38.780Z,99.90
2019-04-25T04:14:44.118Z,99.90
2019-04-25T04:24:53.801Z,99.90
2019-04-25T04:34:59.226Z,99.90
2019-04-25T04:45:04.934Z,99.90
2019-04-25T04:55:11.604Z,99.90
2019-04-25T05:05:30.489Z,99.90
2019-04-25T05:15:35.242Z,99.90
2019-04-25T05:25:40.814Z,99.90
2019-04-25T05:35:46.139Z,99.90
2019-04-25T05:45:51.757Z,94.80
2019-04-25T05:55:57.205Z,92.10
2019-04-25T06:06:03.390Z,93.80
2019-04-25T06:16:30.936Z,93.10
2019-04-25T06:26:43.369Z,88.80
2019-04-25T06:36:48.746Z,94.10
2019-04-25T06:47:16.841Z,97.70
2019-04-25T06:57:24.162Z,91.60
2019-04-25T07:07:29.330Z,91.10
2019-04-25T07:17:35.037Z,83.80
2019-04-25T07:28:03.403Z,81.50
2019-04-25T07:38:09.068Z,79.40
2019-04-25T07:48:14.525Z,77.70
2019-04-25T07:58:20.094Z,80.40
2019-04-25T08:08:25.467Z,81.60
2019-04-25T08:18:31.180Z,81.70
2019-04-25T08:28:48.857Z,83.40
2019-04-25T08:38:44.763Z,82.70
2019-04-25T08:49:21.334Z,82.90
2019-04-25T08:59:49.581Z,83.60
2019-04-25T09:09:51.547Z,85.50
2019-04-25T09:19:57.309Z,85.80
2019-04-25T09:30:03.933Z,88.80
2019-04-25T09:40:14.300Z,88.80
2019-04-25T09:50:35.147Z,88.80
2019-04-25T10:00:44.577Z,89.80
2019-04-25T10:10:50.501Z,88.80
2019-04-25T10:20:56.424Z,89.10
2019-04-25T10:31:03.413Z,88.00
2019-04-25T10:41:11.254Z,86.60
2019-04-25T10:51:17.153Z,86.30
2019-04-25T11:01:24.405Z,86.30
2019-04-25T11:11:32.015Z,86.40
2019-04-25T11:21:38.623Z,86.80
2019-04-25T11:31:48.946Z,84.90
2019-04-25T11:41:55.556Z,84.00
2019-04-25T11:52:03.100Z,82.90
2019-04-25T12:02:13.286Z,83.50
2019-04-25T12:12:18.748Z,82.20
2019-04-25T12:22:24.433Z,81.80
2019-04-25T12:32:30.022Z,81.30
2019-04-25T12:42:36.211Z,80.20
2019-04-25T12:52:43.301Z,80.30
2019-04-25T13:02:48.872Z,81.00
2019-04-25T13:12:55.501Z,81.60
2019-04-25T13:23:03.175Z,81.30
2019-04-25T13:33:17.493Z,80.60
2019-04-25T13:43:23.004Z,80.60
2019-04-25T13:53:29.436Z,80.80
2019-04-25T14:03:36.624Z,80.00
2019-04-25T14:13:42.226Z,78.60
2019-04-25T14:23:47.835Z,76.70
2019-04-25T14:33:53.400Z,75.30
2019-04-25T14:43:58.992Z,74.10
2019-04-25T14:54:06.360Z,75.30
2019-04-25T15:04:20.827Z,76.20
2019-04-25T15:14:26.923Z,77.00
2019-04-25T15:24:32.798Z,76.70
2019-04-25T15:34:45.241Z,76.00
2019-04-25T15:45:21.897Z,74.90
2019-04-25T15:55:27.639Z,75.30
2019-04-25T16:05:33.444Z,75.00
2019-04-25T16:15:41.300Z,75.60
2019-04-25T16:25:46.747Z,77.00
2019-04-25T16:35:52.239Z,77.40
2019-04-25T16:45:57.982Z,80.00
2019-04-25T16:56:05.279Z,81.70
2019-04-25T17:06:11.047Z,83.20
2019-04-25T17:16:41.175Z,84.70
2019-04-25T17:26:47.111Z,85.90
2019-04-25T17:37:12.688Z,87.00
2019-04-25T17:47:18.061Z,87.50
2019-04-25T17:57:23.516Z,87.90
2019-04-25T18:07:30.081Z,88.30
2019-04-25T18:17:35.659Z,88.30
2019-04-25T18:27:51.174Z,88.40
2019-04-25T18:38:15.642Z,89.80
2019-04-25T18:48:20.980Z,90.80
2019-04-25T18:58:43.946Z,92.00
2019-04-25T19:08:53.205Z,93.10
2019-04-25T19:18:58.047Z,94.60
2019-04-25T19:29:03.556Z,96.20
2019-04-25T19:39:09.531Z,97.90
2019-04-25T19:49:16.554Z,99.70
2019-04-25T19:59:22.914Z,99.90
2019-04-25T20:09:57.202Z,99.90
2019-04-25T20:20:02.604Z,99.90
2019-04-25T20:30:08.595Z,99.90
2019-04-25T20:40:14.499Z,99.90
2019-04-25T20:50:19.929Z,99.90
2019-04-25T21:00:47.095Z,99.90
2019-04-25T21:10:54.553Z,99.90
2019-04-25T21:21:01.233Z,99.90
2019-04-25T21:31:06.959Z,99.90
2019-04-25T21:41:29.807Z,99.90
2019-04-25T21:51:35.364Z,99.90
2019-04-25T22:01:41.481Z,99.90
2019-04-25T22:11:47.035Z,99.90
2019-04-25T22:21:52.830Z,99.90
2019-04-25T22:32:06.585Z,99.90
2019-04-25T22:42:15.033Z,99.90
2019-04-25T22:52:24.063Z,99.90
2019-04-25T23:02:38.437Z,99.90
2019-04-25T23:12:43.777Z,99.90
2019-04-25T23:22:49.237Z,99.90
2019-04-25T23:32:54.685Z,99.90
2019-04-25T23:42:59.995Z,99.90
2019-04-25T23:53:05.327Z,99.90
